Pemaquid Point Lighthouse, ME

43° 50' 13"N, 69° 30' 22"W, Elevation 40 ft.
Eastern Time

Hourly observations for the last 72 hours

Date Time Temperature (°F) Humi-
dity

(%)
Wind
(mph)
Pressure Rain (in) Sun
(W/m2)
UV ET
(in)
Air Dew 6 Hour 1 Hr 3 Hr 6 Hr Day
Alt
(in)
Sea
Level

(mb)
Max Min
20 20:00 61.5 56.6 65.4 61.5 84 WSW 6 G 10 29.69 1005.5 0.00 19 0.0 0.170
20 19:00 62.0 56.8 83 WSW 5 G 12 29.70 1005.7 0.00 79 0.0 0.162
20 18:00 62.1 56.9 83 W 9 G 13 29.71 1006.1 0.00 473 1.2 0.153
20 17:00 62.3 56.1 80 W 9 G 13 29.72 1006.5 0.00 262 1.6 0.143
20 16:00 63.4 56.1 77 SW 10 G 13 29.75 1007.3 0.00 343 2.4 0.125
20 15:00 64.5 56.0 74 SSW 13 G 16 29.76 1007.8 0.00 923 6.0 0.104
20 14:00 65.4 57.3 66.7 60.6 75 SSW 13 G 18 29.77 1008.2 0.00 1071 5.8 0.084
20 13:00 64.9 57.2 76 SW 11 G 17 29.78 1008.7 0.00 882 7.7 0.063
20 12:00 64.4 56.7 76 WSW 4 G 11 29.81 1009.6 0.00 779 6.6 0.042
20 11:00 62.5 56.6 81 SW 5 G 13 29.83 1010.0 0.00 823 6.4 0.027
20 10:00 61.8 55.6 80 WSW 3 G 8 29.83 1010.2 0.00 162 2.8 0.025
20 09:00 63.9 53.5 69 WSW 2 G 7 29.84 1010.6 0.00 42 0.0 0.022
20 08:00 64.2 51.4 64.2 57.8 63 W 5 G 8 29.85 1011.0 0.00 37 0.0 0.019
20 07:00 61.5 49.6 65 WNW 6 G 10 29.84 1010.5 0.00 32 0.0 0.016
20 06:00 59.2 47.9 66 WNW 10 G 13 29.83 1010.2 0.00 74 0.0 0.013
20 05:00 58.1 47.6 68 WNW 9 G 14 29.82 1009.9 0.00 5 0.0 0.011
20 04:00 58.9 47.6 66 WNW 9 G 14 29.82 1010.0 0.00 0 0.0 0.008
20 03:00 59.9 47.7 64 WNW 8 G 12 29.82 1010.0 0.00 0 0.0 0.005
20 02:00 60.9 48.2 71.0 59.5 63 WNW 8 G 13 29.83 1010.2 0.00 0 0.0 0.002
20 01:00 59.7 49.5 69 WNW 9 G 10 29.83 1010.4 0.00 0 0.0 0.000
20 00:00 62.1 50.2 65 WNW 5 G 7 29.83 1010.2 0.04 0 0.0 0.252
19 23:00 63.9 51.1 63 NW 5 G 9 29.82 1010.0 0.04 0 0.0 0.250
19 22:00 65.8 51.5 60 WNW 5 G 7 29.81 1009.5 0.04 0 0.0 0.247
19 21:00 67.5 51.3 56 NW 5 G 8 29.78 1008.7 0.04 0 0.0 0.245
19 20:00 71.0 51.4 76.3 71.0 50 NW 7 G 10 29.77 1008.0 0.04 19 0.0 0.239
19 19:00 74.0 51.9 46 NW 5 G 11 29.74 1007.0 0.04 207 0.0 0.227
19 18:00 75.3 51.3 43 WNW 9 G 16 29.71 1006.1 0.04 424 1.1 0.208
19 17:00 76.1 49.4 39 WNW 10 G 24 29.70 1005.8 0.04 615 2.4 0.185
19 16:00 75.5 50.2 41 WNW 12 G 21 29.69 1005.6 0.04 789 4.2 0.158
19 15:00 74.8 52.1 45 NW 10 G 26 29.69 1005.5 0.04 923 6.2 0.129
19 14:00 74.0 54.2 74.2 67.4 50 WNW 12 G 19 29.69 1005.4 0.04 956 7.0 0.099
19 13:00 73.5 54.8 52 WNW 11 G 24 29.68 1005.2 0.04 963 8.3 0.070
19 12:00 72.2 53.6 52 WNW 14 G 25 29.68 1005.0 0.04 1025 8.5 0.041
19 11:00 71.9 54.4 54 NW 13 G 22 29.67 1004.9 0.04 953 7.2 0.018
19 10:00 70.3 55.3 59 WNW 17 G 31 29.67 1004.8 0.04 51 2.6 0.011
19 09:00 69.1 57.7 67 WNW 16 G 23 29.67 1004.6 0.04 120 2.1 0.007
19 08:00 67.4 61.7 68.1 62.6 82 W 8 G 13 29.66 1004.3 0.03 0.04 62 1.3 0.004
19 07:00 65.8 61.8 87 WNW 7 G 16 29.64 1003.6 0.04 98 0.7 0.001
19 06:00 64.1 62.0 93 WNW 5 G 8 29.61 1002.8 0.04 60 0.0 0.000
19 05:00 64.9 63.7 96 NW 10 G 17 29.58 1001.6 0.03 0.04 0 0.0 0.000
19 04:00 67.2 66.6 98 W 6 G 10 29.54 1000.5 0.04 0 0.0 0.000
19 03:00 67.3 66.7 98 W 4 G 9 29.52 999.7 0.03 0.04 0 0.0 0.000
19 02:00 62.7 62.1 64.4 58.4 98 W 7 G 12 29.52 999.6 0.01 0.13 0.01 0 0.0 0.000
19 01:00 59.7 59.1 98 WSW 12 G 17 29.50 999.1 0.01 0.01 0 0.0 0.000
19 00:00 59.5 58.6 97 WSW 12 G 18 29.52 999.8 0.33 0 0.0 0.084
18 23:00 60.1 59.5 98 WSW 10 G 16 29.56 1000.9 0.12 0.33 0 0.0 0.084
18 22:00 59.6 58.7 97 WSW 8 G 15 29.58 1001.8 0.33 0 0.0 0.084
18 21:00 61.2 60.1 96 SW 13 G 19 29.59 1002.0 0.12 0.33 0 0.0 0.084
18 20:00 61.9 60.7 64.1 59.7 96 SW 17 G 29 29.64 1003.8 0.13 0.21 0.21 0.21 0 0.0 0.083
18 19:00 61.4 60.0 95 SW 18 G 26 29.64 1003.9 0.07 0.08 12 0.0 0.082
18 18:00 60.2 58.2 93 WSW 9 G 16 29.66 1004.5 0.01 0.01 9 0.0 0.080
18 17:00 61.9 58.9 90 WSW 10 G 19 29.68 1005.0 0.00 65 0.5 0.076
18 16:00 62.5 59.8 91 WSW 8 G 14 29.68 1005.1 0.00 469 2.7 0.068
18 15:00 62.3 59.3 90 WSW 7 G 14 29.71 1006.0 0.00 401 3.1 0.058
18 14:00 62.5 58.9 65.0 57.0 88 SW 6 G 15 29.73 1006.8 0.00 330 3.1 0.048
18 13:00 63.7 59.8 87 WSW 8 G 15 29.77 1008.0 0.00 369 3.4 0.032
18 12:00 62.1 59.1 90 WSW 6 G 11 29.80 1009.1 0.00 610 5.1 0.021
18 11:00 60.3 57.7 91 WSW 3 G 8 29.82 1009.8 0.00 585 4.5 0.013
18 10:00 59.7 58.0 94 WSW 4 G 8 29.85 1010.9 0.00 424 3.2 0.007
18 09:00 57.7 56.3 95 SW 3 G 7 29.86 1011.2 0.00 193 1.3 0.004
18 08:00 57.1 55.7 57.3 52.9 95 SW 2 G 8 29.89 1012.2 0.00 77 0.5 0.002
18 07:00 56.9 55.5 95 S 5 G 6 29.89 1012.2 0.00 54 0.0 0.001
18 06:00 56.6 55.2 95 WSW 4 G 8 29.92 1013.1 0.00 30 0.0 0.000
18 05:00 55.8 54.7 96 WSW 4 G 6 29.93 1013.5 0.00 0 0.0 0.000
18 04:00 53.5 52.4 96 ESE 3 G 5 29.94 1013.9 0.00 0 0.0 0.000
18 03:00 53.0 51.6 95 NE 5 G 8 29.97 1014.9 0.00 0 0.0 0.000
18 02:00 53.5 52.1 53.8 53.0 95 NE 8 G 10 30.00 1015.8 0.00 0 0.0 0.000
18 01:00 53.4 52.0 95 NNE 8 G 10 30.01 1016.3 0.00 0 0.0 0.000
18 00:00 53.5 52.1 95 NNE 7 G 12 30.02 1016.7 0.00 0 0.0 0.177
17 23:00 53.6 51.9 94 NNE 7 G 10 30.04 1017.4 0.00 0 0.0 0.177
17 22:00 53.1 51.4 94 NNE 5 G 9 30.05 1017.7 0.00 0 0.0 0.177
17 21:00 53.3 51.3 93 ENE 10 G 12 30.06 1017.9 0.00 0 0.0 0.176

Data generated by WxSolution Version 1.9.1.5, Build 2018.05.20.